Time;durP1;ratioP1;P1;durP2;ratioP2;P2;SDS_P1;SDS_P2;PMS_P1;PMS_P2;Temp;Humidity;BMP_temperature;BMP_pressure;BME280_temperature;BME280_humidity;BME280_pressure;Samples;Min_cycle;Max_cycle;Signal;HPM_P1;HPM_P2
2023/01/09 00:02:14;;;;;;;9.10;2.80;;;;;;;7.18;59.24;101520.55;107699;1290;22735;-61
2023/01/09 00:04:40;;;;;;;9.80;2.60;;;;;;;7.19;59.10;101520.73;107716;1290;22467;-63
2023/01/09 00:07:06;;;;;;;6.70;2.50;;;;;;;7.20;59.16;101522.33;107705;1290;21987;-60
2023/01/09 00:09:38;;;;;;;10.30;2.90;;;;;;;7.23;59.05;101524.48;107732;1290;21992;-60
2023/01/09 00:12:04;;;;;;;12.80;3.00;;;;;;;7.25;59.17;101528.38;107698;1290;21999;-63
2023/01/09 00:14:30;;;;;;;10.20;2.90;;;;;;;7.28;59.30;101523.89;107785;1290;21989;-63
2023/01/09 00:16:56;;;;;;;12.40;2.40;;;;;;;7.32;59.22;101521.15;107720;1290;22003;-60
2023/01/09 00:19:22;;;;;;;15.80;2.80;;;;;;;7.33;59.08;101514.90;107786;1285;22031;-64
2023/01/09 00:21:48;;;;;;;8.80;2.60;;;;;;;7.34;59.09;101513.86;107855;1289;22005;-63
2023/01/09 00:24:15;;;;;;;10.90;2.80;;;;;;;7.34;59.18;101513.52;108010;1291;22462;-64
2023/01/09 00:26:41;;;;;;;7.00;2.50;;;;;;;7.32;58.98;101516.45;107847;1289;22024;-63
2023/01/09 00:29:09;;;;;;;17.00;3.00;;;;;;;7.33;59.12;101513.33;107698;1289;21983;-61
2023/01/09 00:31:34;;;;;;;11.50;2.50;;;;;;;7.35;59.02;101509.70;107831;1290;22002;-60
2023/01/09 00:34:03;;;;;;;7.40;2.80;;;;;;;7.35;59.36;101505.34;107703;1289;21991;-60
2023/01/09 00:36:29;;;;;;;9.90;2.80;;;;;;;7.37;59.21;101499.95;107719;1289;23647;-63
2023/01/09 00:38:54;;;;;;;12.80;3.50;;;;;;;7.41;58.86;101496.37;107680;1290;21993;-60
2023/01/09 00:41:29;;;;;;;8.00;2.40;;;;;;;7.44;58.81;101497.47;107792;1290;21998;-60
2023/01/09 00:43:57;;;;;;;13.30;2.50;;;;;;;7.43;58.86;101494.32;107739;1289;21948;-63
2023/01/09 00:46:26;;;;;;;9.70;2.70;;;;;;;7.46;58.84;101492.62;107698;1290;21995;-60
2023/01/09 00:48:51;;;;;;;5.60;2.20;;;;;;;7.47;58.78;101487.59;107690;1290;22007;-60
2023/01/09 00:51:18;;;;;;;11.50;3.90;;;;;;;7.50;58.82;101484.83;107790;1290;22796;-60
2023/01/09 00:53:44;;;;;;;15.60;2.90;;;;;;;7.49;58.78;101477.11;107685;1290;22006;-62
2023/01/09 00:56:12;;;;;;;6.10;2.60;;;;;;;7.50;58.77;101473.84;107718;1290;21980;-60
2023/01/09 00:58:38;;;;;;;12.50;2.80;;;;;;;7.47;58.55;101466.45;107766;1291;21994;-60
2023/01/09 01:01:04;;;;;;;9.50;2.30;;;;;;;7.48;59.00;101461.91;107687;1290;21989;-60
2023/01/09 01:03:31;;;;;;;8.60;1.90;;;;;;;7.45;59.03;101455.06;107769;1290;22001;-60
2023/01/09 01:08:41;;;;;;;12.00;3.00;;;;;;;7.55;58.72;101444.56;107697;1290;22027;-62
2023/01/09 01:11:09;;;;;;;7.80;2.00;;;;;;;7.55;58.71;101444.91;107757;1290;23641;-60
2023/01/09 01:13:36;;;;;;;13.10;3.40;;;;;;;7.52;58.88;101441.02;107717;1289;22030;-60
2023/01/09 01:16:08;;;;;;;13.20;2.70;;;;;;;7.54;58.86;101434.95;107713;1290;22011;-61
2023/01/09 01:18:34;;;;;;;14.20;2.20;;;;;;;7.58;58.80;101435.71;107832;1291;22944;-60
2023/01/09 01:21:06;;;;;;;9.50;2.50;;;;;;;7.59;58.68;101431.70;107660;1290;23444;-60
2023/01/09 01:23:32;;;;;;;10.10;2.20;;;;;;;7.60;58.72;101428.41;107694;1290;22000;-62
2023/01/09 01:26:02;;;;;;;15.50;3.00;;;;;;;7.63;58.85;101422.35;107803;1290;22458;-61
2023/01/09 01:28:28;;;;;;;10.50;2.80;;;;;;;7.66;58.78;101416.63;107948;1290;21999;-62
2023/01/09 01:30:54;;;;;;;12.90;2.80;;;;;;;7.66;58.81;101414.00;107695;1290;21990;-61
2023/01/09 01:33:20;;;;;;;10.20;3.20;;;;;;;7.64;59.02;101408.20;107724;1290;21954;-60
2023/01/09 01:35:45;;;;;;;9.80;2.90;;;;;;;7.65;58.71;101407.54;107690;1290;22000;-63
2023/01/09 01:38:11;;;;;;;9.00;3.30;;;;;;;7.62;58.92;101405.38;107679;1291;22000;-64
2023/01/09 01:40:39;;;;;;;7.30;2.50;;;;;;;7.60;59.19;101404.99;107766;1290;23815;-61
2023/01/09 01:43:04;;;;;;;8.40;2.70;;;;;;;7.63;59.11;101398.77;107761;1290;22002;-62
2023/01/09 01:45:32;;;;;;;12.30;2.80;;;;;;;7.65;59.41;101397.23;107749;1290;21993;-61
2023/01/09 01:48:20;;;;;;;11.00;3.30;;;;;;;7.66;59.02;101390.08;107747;1291;22036;-62
2023/01/09 01:50:52;;;;;;;9.40;3.10;;;;;;;7.70;59.00;101386.83;107777;1290;22010;-61
2023/01/09 01:53:32;;;;;;;12.80;2.50;;;;;;;7.73;58.94;101386.17;107887;1291;22050;-62
2023/01/09 01:56:25;;;;;;;9.20;2.50;;;;;;;7.69;59.08;101383.33;108038;1290;21995;-61
2023/01/09 01:59:00;;;;;;;6.90;2.20;;;;;;;7.64;59.45;101379.73;107936;1286;21996;-63
2023/01/09 02:01:26;;;;;;;8.00;2.30;;;;;;;7.59;59.73;101379.66;107701;1290;21995;-61
2023/01/09 02:03:56;;;;;;;14.00;3.40;;;;;;;7.61;59.79;101381.42;107786;1290;22001;-62
2023/01/09 02:06:22;;;;;;;14.60;3.60;;;;;;;7.66;59.42;101378.89;107747;1290;22003;-62
2023/01/09 02:08:48;;;;;;;8.90;2.60;;;;;;;7.72;59.40;101379.86;107874;1290;22013;-62
2023/01/09 02:11:14;;;;;;;7.50;3.00;;;;;;;7.72;59.24;101374.95;107864;1290;21999;-62
2023/01/09 02:13:40;;;;;;;7.40;2.60;;;;;;;7.73;59.40;101374.11;108048;1291;22002;-62
2023/01/09 02:16:30;;;;;;;10.20;2.90;;;;;;;7.71;59.68;101372.67;107860;1290;22012;-62
2023/01/09 02:19:02;;;;;;;7.90;2.70;;;;;;;7.70;59.79;101368.81;107947;1290;22196;-63
2023/01/09 02:21:37;;;;;;;9.30;2.80;;;;;;;7.65;59.92;101370.33;107866;1291;22010;-63
2023/01/09 02:24:12;;;;;;;11.20;2.80;;;;;;;7.64;59.99;101368.22;107736;1289;22003;-64
2023/01/09 02:26:56;;;;;;;8.10;3.30;;;;;;;7.64;60.30;101367.52;107674;1279;21994;-63
2023/01/09 02:29:47;;;;;;;5.50;2.60;;;;;;;7.63;60.63;101365.73;107699;1289;21997;-62
2023/01/09 02:32:45;;;;;;;8.80;3.30;;;;;;;7.63;60.35;101362.60;107645;1290;22002;-62
2023/01/09 02:35:29;;;;;;;10.30;4.10;;;;;;;7.68;60.27;101360.23;107517;1290;21994;-62
2023/01/09 02:38:04;;;;;;;11.90;3.00;;;;;;;7.68;60.45;101355.52;107735;1290;22189;-62
2023/01/09 02:40:34;;;;;;;11.80;3.00;;;;;;;7.68;60.64;101352.71;107741;1289;22042;-66
2023/01/09 02:43:00;;;;;;;8.80;2.60;;;;;;;7.70;60.45;101353.29;107744;1290;21994;-62
2023/01/09 02:45:25;;;;;;;13.30;2.90;;;;;;;7.72;60.64;101350.52;107624;1290;22002;-67
2023/01/09 02:47:51;;;;;;;9.50;2.90;;;;;;;7.75;60.57;101349.16;107674;1290;23618;-62
2023/01/09 02:50:22;;;;;;;9.10;3.30;;;;;;;7.76;60.36;101345.48;107680;1290;22001;-66
2023/01/09 02:53:18;;;;;;;11.60;3.20;;;;;;;7.77;60.57;101337.83;106989;1286;1002321;-66
2023/01/09 02:56:32;;;;;;;8.30;2.90;;;;;;;7.82;60.36;101331.79;107639;1290;22000;-65
2023/01/09 02:59:31;;;;;;;7.90;2.40;;;;;;;7.85;60.41;101334.29;107295;1295;22005;-63
2023/01/09 03:02:28;;;;;;;6.80;2.50;;;;;;;7.84;60.62;101334.95;107325;1295;21998;-63
2023/01/09 03:05:06;;;;;;;7.90;3.10;;;;;;;7.86;60.86;101333.07;107769;1290;21990;-64
2023/01/09 03:07:42;;;;;;;8.10;2.70;;;;;;;7.90;60.71;101333.29;107934;1290;21987;-66
2023/01/09 03:10:13;;;;;;;9.80;3.20;;;;;;;7.93;60.36;101325.83;107968;1291;21999;-67
2023/01/09 03:12:39;;;;;;;7.20;2.50;;;;;;;7.96;60.31;101322.54;107723;1290;22746;-66
2023/01/09 03:15:05;;;;;;;7.90;2.90;;;;;;;7.98;60.30;101320.64;107679;1290;21999;-66
2023/01/09 03:17:43;;;;;;;9.40;3.30;;;;;;;8.06;60.36;101321.29;107756;1285;21998;-66
2023/01/09 03:20:10;;;;;;;5.90;2.70;;;;;;;8.16;60.03;101321.42;107738;1290;22001;-66
2023/01/09 03:22:38;;;;;;;10.10;3.50;;;;;;;8.25;59.57;101319.23;107720;1289;22003;-67
2023/01/09 03:25:07;;;;;;;7.30;3.00;;;;;;;8.29;59.59;101317.72;107055;1290;1002569;-63
2023/01/09 03:27:33;;;;;;;12.00;3.40;;;;;;;8.30;59.61;101315.45;107703;1290;22000;-63
2023/01/09 03:29:59;;;;;;;11.10;3.30;;;;;;;8.24;60.00;101315.04;107757;1290;21980;-66
2023/01/09 03:32:26;;;;;;;9.60;3.20;;;;;;;8.20;60.13;101316.20;107699;1289;22006;-62
2023/01/09 03:34:52;;;;;;;10.90;3.20;;;;;;;8.38;59.60;101315.71;107703;1290;22001;-62
2023/01/09 03:37:17;;;;;;;7.90;2.90;;;;;;;8.43;59.53;101315.26;107960;1285;22004;-67
2023/01/09 03:39:43;;;;;;;11.10;3.30;;;;;;;8.47;59.40;101315.48;107709;1291;22003;-63
2023/01/09 03:42:09;;;;;;;8.60;2.90;;;;;;;8.44;59.36;101313.52;107657;1290;21996;-62
2023/01/09 03:44:35;;;;;;;12.90;4.00;;;;;;;8.44;59.34;101313.88;107700;1290;23650;-65
2023/01/09 03:47:00;;;;;;;10.50;3.00;;;;;;;8.46;59.37;101316.86;107679;1290;21992;-66
2023/01/09 03:49:26;;;;;;;11.10;2.70;;;;;;;8.45;59.43;101312.31;107657;1290;22006;-62
2023/01/09 03:51:51;;;;;;;9.10;2.60;;;;;;;8.46;59.42;101314.95;107671;1286;22010;-65
2023/01/09 03:54:17;;;;;;;12.20;3.50;;;;;;;8.48;59.51;101316.20;107715;1290;21986;-62
2023/01/09 03:56:44;;;;;;;9.70;3.00;;;;;;;8.48;59.51;101316.38;107743;1290;21995;-62
2023/01/09 03:59:10;;;;;;;13.80;3.10;;;;;;;8.39;59.97;101315.73;107749;1289;22091;-62
2023/01/09 04:01:39;;;;;;;14.00;3.60;;;;;;;8.31;60.15;101313.73;107736;1285;21995;-63
2023/01/09 04:04:05;;;;;;;12.30;3.50;;;;;;;8.21;60.66;101316.05;107722;1290;21986;-65
2023/01/09 04:06:30;;;;;;;7.10;2.90;;;;;;;8.23;60.57;101315.02;107716;1290;22005;-63
2023/01/09 04:08:56;;;;;;;10.60;3.10;;;;;;;8.31;60.60;101314.24;107716;1290;21995;-65
2023/01/09 04:11:22;;;;;;;11.60;3.20;;;;;;;8.35;60.68;101312.73;107668;1290;21995;-63
2023/01/09 04:13:47;;;;;;;9.90;3.60;;;;;;;8.34;61.08;101311.14;107685;1291;22034;-65
2023/01/09 04:16:13;;;;;;;10.50;3.40;;;;;;;8.37;60.75;101312.21;107657;1291;22050;-65
2023/01/09 04:18:41;;;;;;;10.40;3.40;;;;;;;8.40;60.55;101315.04;107710;1290;21988;-65
2023/01/09 04:21:10;;;;;;;10.10;3.00;;;;;;;8.32;60.82;101313.20;107686;1290;21998;-63
2023/01/09 04:23:36;;;;;;;11.30;3.60;;;;;;;8.23;60.98;101316.60;107825;1289;22007;-65
2023/01/09 04:26:02;;;;;;;10.90;3.00;;;;;;;8.22;61.25;101315.52;107891;1290;22039;-65
2023/01/09 04:28:28;;;;;;;11.30;4.50;;;;;;;8.27;61.20;101313.33;107935;1290;23720;-62
2023/01/09 04:30:53;;;;;;;11.50;3.50;;;;;;;8.29;61.23;101306.19;107995;1291;22007;-62
2023/01/09 04:33:19;;;;;;;11.90;3.70;;;;;;;8.34;60.96;101305.71;107805;1290;22135;-62
2023/01/09 04:35:45;;;;;;;13.00;4.30;;;;;;;8.32;61.03;101299.92;107771;1282;22097;-64
2023/01/09 04:38:11;;;;;;;11.40;5.10;;;;;;;8.32;61.05;101299.05;107714;1290;21997;-64
2023/01/09 04:40:36;;;;;;;9.10;3.90;;;;;;;8.33;61.03;101299.41;107729;1290;22009;-62
2023/01/09 04:43:03;;;;;;;10.60;3.70;;;;;;;8.45;60.93;101294.83;107720;1289;21997;-65
2023/01/09 04:45:29;;;;;;;8.40;3.30;;;;;;;8.51;61.15;101294.23;107635;1289;22006;-64
2023/01/09 04:47:54;;;;;;;7.50;3.00;;;;;;;8.35;61.64;101290.35;106930;1290;1002350;-63
2023/01/09 04:50:21;;;;;;;10.40;3.10;;;;;;;8.47;61.56;101285.58;107749;1283;22002;-64
2023/01/09 04:52:47;;;;;;;8.70;3.20;;;;;;;8.53;61.19;101284.61;107700;1290;22001;-63
2023/01/09 04:55:12;;;;;;;8.50;3.60;;;;;;;8.51;61.48;101282.85;107674;1290;22000;-63
2023/01/09 04:57:41;;;;;;;9.40;3.60;;;;;;;8.53;61.53;101279.20;107702;1290;21986;-64
2023/01/09 05:00:08;;;;;;;9.90;3.60;;;;;;;8.57;61.37;101279.08;107799;1290;21991;-64
2023/01/09 05:02:36;;;;;;;12.80;4.00;;;;;;;8.56;61.62;101278.02;107707;1291;22010;-64
2023/01/09 05:05:01;;;;;;;9.00;2.80;;;;;;;8.55;61.23;101277.13;107772;1289;21993;-63
2023/01/09 05:07:28;;;;;;;8.70;3.10;;;;;;;8.63;61.33;101282.09;107910;1289;22002;-63
2023/01/09 05:09:54;;;;;;;6.40;2.60;;;;;;;8.70;61.08;101279.89;107948;1290;21995;-64
2023/01/09 05:12:20;;;;;;;10.90;3.20;;;;;;;8.71;61.16;101281.99;107673;1284;21996;-65
2023/01/09 05:14:45;;;;;;;8.30;3.20;;;;;;;8.73;61.17;101281.67;107389;1284;416003;-64
2023/01/09 05:17:12;;;;;;;7.60;3.30;;;;;;;8.76;61.06;101283.29;107686;1290;21993;-63
2023/01/09 05:19:38;;;;;;;6.20;3.00;;;;;;;8.70;61.51;101283.73;107705;1283;22008;-63
2023/01/09 05:22:04;;;;;;;5.50;2.60;;;;;;;8.71;61.77;101282.52;107686;1291;23658;-64
2023/01/09 05:24:30;;;;;;;9.80;2.90;;;;;;;8.77;61.40;101281.88;107781;1286;22167;-65
2023/01/09 05:26:56;;;;;;;12.00;3.00;;;;;;;8.80;61.18;101280.52;107817;1290;21992;-65
2023/01/09 05:29:22;;;;;;;5.90;2.70;;;;;;;8.79;61.45;101279.45;107697;1290;22029;-65
2023/01/09 05:31:48;;;;;;;5.40;2.70;;;;;;;8.80;61.49;101283.84;107690;1290;21996;-65
2023/01/09 05:34:14;;;;;;;10.30;3.10;;;;;;;8.82;61.38;101286.48;107684;1287;21991;-70
2023/01/09 05:36:40;;;;;;;7.20;2.50;;;;;;;8.80;61.72;101289.09;107796;1290;22010;-67
2023/01/09 05:39:06;;;;;;;8.30;2.50;;;;;;;8.78;62.14;101285.23;107889;1285;21994;-66
2023/01/09 05:41:31;;;;;;;5.90;2.40;;;;;;;8.78;62.37;101286.62;108002;1290;22014;-65
2023/01/09 05:43:59;;;;;;;5.00;2.70;;;;;;;8.81;62.45;101287.36;107950;1290;22462;-66
2023/01/09 05:46:25;;;;;;;8.50;2.60;;;;;;;8.84;62.18;101290.00;107683;1290;22104;-66
2023/01/09 05:48:51;;;;;;;5.70;2.50;;;;;;;8.81;62.66;101288.05;107592;1279;21993;-65
2023/01/09 05:51:17;;;;;;;8.40;3.00;;;;;;;8.83;62.38;101289.46;107950;1290;21997;-65
2023/01/09 05:53:42;;;;;;;7.10;2.60;;;;;;;8.85;62.38;101291.92;107885;1290;22107;-67
2023/01/09 05:56:08;;;;;;;7.10;2.80;;;;;;;8.87;62.38;101295.09;107680;1289;21985;-67
2023/01/09 05:58:35;;;;;;;6.40;2.70;;;;;;;8.87;62.64;101301.21;107818;1290;22836;-67
2023/01/09 06:01:02;;;;;;;6.90;2.70;;;;;;;8.87;62.89;101301.76;107850;1290;21988;-68
2023/01/09 06:03:28;;;;;;;5.80;2.50;;;;;;;8.91;62.62;101300.56;108019;1280;22004;-66
2023/01/09 06:05:54;;;;;;;6.30;2.50;;;;;;;8.96;62.28;101299.21;107771;1290;22003;-67
2023/01/09 06:08:20;;;;;;;5.30;2.20;;;;;;;8.96;62.40;101297.81;107703;1286;21990;-67
2023/01/09 06:10:45;;;;;;;4.80;2.30;;;;;;;8.96;62.51;101296.41;107816;1290;22001;-66
2023/01/09 06:13:11;;;;;;;5.40;2.20;;;;;;;8.97;62.72;101299.58;107674;1290;22031;-66
2023/01/09 06:15:37;;;;;;;9.80;2.50;;;;;;;8.97;62.80;101298.52;107709;1290;22174;-66
2023/01/09 06:18:03;;;;;;;5.60;2.20;;;;;;;8.98;62.86;101297.48;107783;1288;22007;-64
2023/01/09 06:20:29;;;;;;;4.70;2.10;;;;;;;9.00;62.74;101301.19;107591;1289;21997;-64
2023/01/09 06:22:55;;;;;;;8.10;2.80;;;;;;;9.04;62.51;101299.29;107698;1290;22033;-64
2023/01/09 06:25:21;;;;;;;4.70;1.80;;;;;;;9.06;62.54;101303.49;107907;1286;22046;-64
2023/01/09 06:27:48;;;;;;;5.80;2.40;;;;;;;9.06;62.82;101307.89;107766;1286;22463;-64
2023/01/09 06:30:14;;;;;;;5.90;2.20;;;;;;;9.10;63.08;101310.00;107738;1290;22003;-64
2023/01/09 06:32:39;;;;;;;7.10;2.20;;;;;;;9.12;63.32;101307.40;107938;1289;21995;-64
2023/01/09 06:35:06;;;;;;;4.10;2.00;;;;;;;9.16;63.16;101306.92;107739;1289;21999;-64
2023/01/09 06:37:32;;;;;;;5.00;2.50;;;;;;;9.17;62.99;101308.16;107998;1290;23730;-63
2023/01/09 06:39:58;;;;;;;3.60;2.00;;;;;;;9.14;63.24;101310.58;107751;1290;21993;-63
2023/01/09 06:42:24;;;;;;;4.00;2.20;;;;;;;9.17;63.15;101313.75;107801;1290;21997;-63
2023/01/09 06:44:49;;;;;;;5.40;2.80;;;;;;;9.20;63.16;101314.47;107652;1290;21999;-62
2023/01/09 06:47:15;;;;;;;4.60;2.50;;;;;;;9.24;63.14;101318.89;107698;1290;22196;-63
2023/01/09 06:49:41;;;;;;;5.30;2.40;;;;;;;9.25;63.43;101321.36;107663;1284;22091;-62
2023/01/09 06:52:06;;;;;;;8.00;3.10;;;;;;;9.25;63.81;101318.38;107660;1286;22004;-62
2023/01/09 06:54:33;;;;;;;6.40;2.80;;;;;;;9.27;63.74;101320.48;107835;1290;22000;-63
2023/01/09 06:56:59;;;;;;;8.10;3.50;;;;;;;9.33;63.53;101318.08;107638;1290;21993;-64
2023/01/09 06:59:25;;;;;;;8.50;4.40;;;;;;;9.36;63.72;101318.11;107635;1289;22004;-64
2023/01/09 07:01:53;;;;;;;6.60;3.30;;;;;;;9.40;63.55;101319.20;107602;1290;21995;-64
2023/01/09 07:04:20;;;;;;;8.40;3.80;;;;;;;9.45;63.34;101316.77;107667;1290;22469;-60
2023/01/09 07:06:47;;;;;;;7.30;3.60;;;;;;;9.46;63.23;101315.20;107610;1291;22033;-64
2023/01/09 10:12:58;;;;;;;18.10;7.60;;;;;;;8.32;100.00;101233.66;107271;1293;556048;-62
2023/01/09 10:15:43;;;;;;;14.90;6.00;;;;;;;10.95;95.74;101215.59;107521;1294;22005;-62
2023/01/09 10:18:21;;;;;;;12.10;4.80;;;;;;;11.46;87.24;101201.98;107401;1296;22004;-62
2023/01/09 10:20:54;;;;;;;12.30;4.30;;;;;;;11.76;83.31;101194.50;107383;1296;22750;-64
2023/01/09 10:23:47;;;;;;;13.80;5.00;;;;;;;11.92;80.92;101193.90;107419;1296;21996;-63
2023/01/09 10:26:24;;;;;;;10.30;4.60;;;;;;;12.02;79.09;101190.36;107376;1294;195379;-64
2023/01/09 10:28:50;;;;;;;13.80;4.60;;;;;;;12.14;77.68;101187.84;107857;1291;21996;-64
2023/01/09 10:31:33;;;;;;;10.10;3.30;;;;;;;12.18;76.40;101185.52;107831;1291;21999;-62
2023/01/09 10:34:07;;;;;;;11.40;3.40;;;;;;;12.27;75.59;101181.79;107789;1291;21995;-62
2023/01/09 10:36:50;;;;;;;9.60;3.30;;;;;;;12.38;74.99;101176.23;107844;1292;21998;-63
2023/01/09 10:39:38;;;;;;;14.30;4.30;;;;;;;12.49;73.97;101173.16;107863;1291;23463;-64
2023/01/09 10:42:12;;;;;;;7.30;2.70;;;;;;;12.55;73.37;101174.00;107981;1291;22477;-63
2023/01/09 10:44:47;;;;;;;8.00;3.20;;;;;;;12.61;72.96;101174.83;107900;1291;22003;-63
2023/01/09 10:47:31;;;;;;;11.40;2.80;;;;;;;12.61;72.05;101168.67;107882;1292;21997;-63
2023/01/09 10:50:05;;;;;;;7.60;2.60;;;;;;;12.61;71.42;101168.15;107974;1291;21995;-63
2023/01/09 10:52:36;;;;;;;9.50;2.80;;;;;;;12.65;71.01;101166.89;107825;1290;21964;-63
2023/01/09 10:55:15;;;;;;;6.20;2.20;;;;;;;12.71;70.23;101164.20;107836;1290;22024;-62
2023/01/09 10:58:08;;;;;;;8.40;2.90;;;;;;;12.59;69.93;101166.93;107846;1289;21997;-63
2023/01/09 11:00:35;;;;;;;6.10;2.10;;;;;;;12.60;70.38;101163.05;108032;1289;21990;-63
2023/01/09 11:03:01;;;;;;;8.80;3.00;;;;;;;12.64;70.01;101160.73;107873;1290;21998;-64
2023/01/09 11:05:28;;;;;;;11.30;3.20;;;;;;;12.70;69.63;101158.22;107887;1279;21999;-62
2023/01/09 11:08:10;;;;;;;5.30;2.60;;;;;;;12.75;69.22;101160.11;108043;1289;22031;-63
2023/01/09 11:11:02;;;;;;;10.80;3.00;;;;;;;12.74;68.67;101157.13;107938;1289;21993;-63
2023/01/09 11:13:32;;;;;;;8.70;2.90;;;;;;;12.89;68.51;101156.30;107832;1277;22001;-63
2023/01/09 11:16:09;;;;;;;10.50;2.70;;;;;;;12.89;67.63;101157.88;107819;1289;22033;-63
2023/01/09 11:18:48;;;;;;;8.10;2.60;;;;;;;12.82;67.36;101150.36;107890;1289;21988;-63
2023/01/09 11:21:27;;;;;;;8.40;2.30;;;;;;;12.84;66.81;101146.30;107898;1289;22004;-62
2023/01/09 11:23:55;;;;;;;9.40;2.90;;;;;;;12.81;66.18;101145.96;107817;1289;21995;-62
2023/01/09 11:26:27;;;;;;;8.80;2.60;;;;;;;12.86;66.35;101141.88;107812;1289;21995;-62
2023/01/09 11:29:12;;;;;;;7.30;2.40;;;;;;;12.99;65.77;101146.16;107933;1289;21999;-63
2023/01/09 11:31:39;;;;;;;14.70;5.00;;;;;;;12.99;65.02;101145.63;107792;1290;22002;-63
2023/01/09 11:34:06;;;;;;;6.70;2.30;;;;;;;12.96;65.13;101147.42;108048;1288;22030;-63
2023/01/09 11:36:32;;;;;;;7.00;2.60;;;;;;;12.90;64.42;101145.70;107910;1288;22069;-62
2023/01/09 11:38:58;;;;;;;6.10;2.40;;;;;;;12.96;64.40;101144.77;107739;1288;22029;-63
2023/01/09 11:41:29;;;;;;;8.40;2.40;;;;;;;12.93;64.36;101146.91;107879;1288;23666;-62
2023/01/09 11:43:57;;;;;;;9.40;2.70;;;;;;;12.87;64.31;101145.38;107954;1288;21999;-64
2023/01/09 11:46:40;;;;;;;9.90;2.80;;;;;;;12.89;64.18;101141.31;108032;1288;22931;-62
2023/01/09 11:49:12;;;;;;;9.20;2.90;;;;;;;12.81;63.57;101142.79;107979;1288;21999;-62
2023/01/09 11:51:38;;;;;;;9.30;3.60;;;;;;;12.86;63.91;101139.95;107912;1288;22048;-64
2023/01/09 11:54:15;;;;;;;11.90;3.80;;;;;;;12.87;64.05;101139.91;105634;1285;1003282;-62
2023/01/09 11:56:40;;;;;;;8.40;3.30;;;;;;;12.83;64.69;101139.95;107859;1288;21996;-62
2023/01/09 11:59:28;;;;;;;10.00;3.50;;;;;;;12.70;65.07;101139.38;107721;1288;21958;-62
2023/01/09 12:02:17;;;;;;;10.00;3.50;;;;;;;12.59;65.23;101139.29;107827;1288;23615;-62
2023/01/09 12:04:47;;;;;;;9.70;4.00;;;;;;;12.53;65.38;101133.53;107815;1288;22001;-62
2023/01/09 12:08:04;;;;;;;12.00;2.90;;;;;;;12.41;65.58;101129.75;107982;1286;23016;-61
2023/01/09 12:10:59;;;;;;;9.40;3.80;;;;;;;12.30;66.07;101127.73;107844;1290;23087;-63
2023/01/09 12:13:35;;;;;;;13.50;4.10;;;;;;;12.28;66.36;101124.05;107839;1288;21992;-64
2023/01/09 12:16:22;;;;;;;12.70;3.70;;;;;;;12.20;66.35;101121.98;107878;1288;22002;-64
2023/01/09 12:18:49;;;;;;;11.80;3.80;;;;;;;12.19;66.60;101122.70;107928;1288;22005;-62
2023/01/09 12:21:19;;;;;;;10.40;3.10;;;;;;;12.19;66.65;101119.70;107990;1286;22002;-61
2023/01/09 12:23:54;;;;;;;10.70;3.40;;;;;;;12.21;66.52;101115.13;107718;1289;22024;-64
2023/01/09 12:26:39;;;;;;;7.90;3.70;;;;;;;12.20;66.66;101113.73;107781;1290;21995;-64
2023/01/09 12:29:16;;;;;;;8.50;3.10;;;;;;;12.17;66.77;101111.80;107791;1288;22007;-61
2023/01/09 12:31:48;;;;;;;13.40;3.20;;;;;;;12.18;66.94;101113.90;108009;1285;21992;-61
2023/01/09 12:34:36;;;;;;;10.70;3.10;;;;;;;12.16;67.14;101116.37;107973;1288;21996;-63
2023/01/09 12:37:18;;;;;;;11.10;3.00;;;;;;;12.20;66.96;101114.25;107265;1288;1002498;-61
2023/01/09 12:39:49;;;;;;;8.70;3.10;;;;;;;12.23;66.80;101115.64;108011;1288;22127;-65
2023/01/09 12:42:24;;;;;;;9.70;3.40;;;;;;;12.19;67.07;101118.30;107738;1290;21996;-61
2023/01/09 12:45:00;;;;;;;7.60;2.80;;;;;;;12.15;67.29;101118.86;107963;1289;22016;-61
2023/01/09 12:47:43;;;;;;;7.20;3.30;;;;;;;12.17;67.16;101120.60;107926;1287;21996;-64
2023/01/09 12:50:20;;;;;;;10.70;2.80;;;;;;;12.18;67.30;101126.58;107876;1289;21995;-62
2023/01/09 12:53:18;;;;;;;10.40;3.90;;;;;;;12.22;67.09;101125.85;107768;1290;22001;-64
2023/01/09 12:55:59;;;;;;;8.20;3.00;;;;;;;12.23;67.16;101130.77;107854;1288;21996;-64
2023/01/09 12:58:30;;;;;;;;;;;;;;;12.24;66.91;101132.70;108021;1288;21993;-64
2023/01/09 13:00:55;;;;;;;9.60;3.20;;;;;;;12.19;66.91;101130.98;107885;1288;22467;-65
2023/01/09 13:03:37;;;;;;;8.70;3.30;;;;;;;12.15;66.88;101132.23;107738;1288;23154;-63
2023/01/09 13:06:08;;;;;;;9.20;3.10;;;;;;;12.18;66.67;101134.50;107941;1286;21997;-61
2023/01/09 13:08:39;;;;;;;10.30;3.40;;;;;;;12.16;66.66;101140.49;108008;1289;23795;-65
2023/01/09 13:11:14;;;;;;;10.80;3.60;;;;;;;12.05;66.87;101137.22;107988;1288;21994;-63
2023/01/09 13:13:48;;;;;;;13.40;3.80;;;;;;;12.01;67.27;101130.73;107862;1289;21990;-61
2023/01/09 13:16:20;;;;;;;8.40;3.40;;;;;;;11.98;67.23;101125.98;107985;1288;21991;-64
2023/01/09 13:18:57;;;;;;;12.80;3.40;;;;;;;11.98;67.35;101128.27;107910;1289;22089;-61
2023/01/09 13:21:22;;;;;;;12.80;3.60;;;;;;;11.91;67.56;101131.83;107934;1289;22004;-61
2023/01/09 13:23:59;;;;;;;10.50;2.80;;;;;;;11.97;67.30;101125.28;107774;1289;22459;-63
2023/01/09 13:26:30;;;;;;;9.40;2.70;;;;;;;11.94;67.24;101124.77;107938;1288;22009;-61
2023/01/09 13:29:01;;;;;;;11.80;3.20;;;;;;;11.88;67.24;101124.45;107859;1289;22004;-65
2023/01/09 13:31:43;;;;;;;9.30;3.00;;;;;;;11.83;67.15;101123.07;107844;1290;21988;-60
2023/01/09 13:34:20;;;;;;;8.50;3.90;;;;;;;11.75;67.42;101119.08;107799;1290;21994;-65
2023/01/09 13:36:48;;;;;;;10.80;3.10;;;;;;;11.80;67.15;101119.92;107755;1290;21997;-60
2023/01/09 13:39:34;;;;;;;7.40;2.40;;;;;;;11.81;67.06;101118.88;107942;1287;22003;-64
2023/01/09 13:44:51;;;;;;;7.70;3.10;;;;;;;11.75;66.86;101120.30;107786;1288;22015;-62
2023/01/09 13:47:22;;;;;;;6.20;2.60;;;;;;;11.58;67.43;101123.73;107913;1288;21996;-61
2023/01/09 13:49:48;;;;;;;;;;;;;;;11.56;67.47;101126.02;106245;1289;1003132;-63
2023/01/09 13:52:23;;;;;;;7.40;2.90;;;;;;;11.52;67.78;101135.54;107876;1288;22063;-61
2023/01/09 13:54:54;;;;;;;8.10;3.00;;;;;;;11.53;67.47;101138.16;107872;1288;21998;-59
2023/01/09 13:57:19;;;;;;;6.30;3.40;;;;;;;11.64;67.04;101135.84;107894;1289;21997;-61
2023/01/09 13:59:47;;;;;;;11.30;3.30;;;;;;;11.64;66.71;101135.30;107864;1289;22310;-61
2023/01/09 14:02:37;;;;;;;6.60;2.80;;;;;;;11.64;66.48;101137.05;107879;1290;21994;-62
2023/01/09 14:05:08;;;;;;;10.60;3.20;;;;;;;11.65;66.30;101138.98;107788;1290;21993;-59
2023/01/09 14:07:55;;;;;;;11.20;3.20;;;;;;;11.69;65.97;101138.98;107917;1290;22010;-61
2023/01/09 14:10:23;;;;;;;8.70;3.30;;;;;;;11.70;66.15;101135.98;107835;1289;21997;-60
2023/01/09 14:12:49;;;;;;;8.20;3.20;;;;;;;11.68;66.19;101132.66;107906;1288;21997;-63
2023/01/09 14:15:36;;;;;;;11.00;3.20;;;;;;;11.63;66.21;101132.68;107793;1289;21994;-63
2023/01/09 14:18:03;;;;;;;5.70;2.80;;;;;;;11.65;66.02;101131.08;108064;1289;22003;-61
2023/01/09 14:20:34;;;;;;;14.10;3.30;;;;;;;11.67;65.83;101125.45;108058;1288;21995;-61
2023/01/09 14:23:00;;;;;;;10.90;3.60;;;;;;;11.82;65.58;101123.43;107964;1281;21999;-64
2023/01/09 14:25:28;;;;;;;8.20;3.40;;;;;;;11.88;65.22;101121.47;107881;1289;21994;-63
2023/01/09 14:28:07;;;;;;;13.90;3.60;;;;;;;11.83;64.69;101126.07;108262;1285;22003;-64
2023/01/09 14:30:33;;;;;;;10.60;2.80;;;;;;;11.80;64.46;101125.38;108627;1289;22175;-58
2023/01/09 14:33:18;;;;;;;11.20;3.10;;;;;;;11.80;64.57;101126.77;107809;1290;21998;-61
2023/01/09 14:35:50;;;;;;;11.40;3.60;;;;;;;11.82;64.44;101123.61;107765;1290;22002;-61
2023/01/09 14:38:48;;;;;;;10.90;3.20;;;;;;;11.80;63.97;101120.63;107782;1289;21992;-61
2023/01/09 14:41:56;;;;;;;10.30;4.00;;;;;;;11.74;63.69;101123.98;107809;1289;22005;-61
2023/01/09 14:44:33;;;;;;;11.00;3.70;;;;;;;11.53;63.92;101130.25;107868;1289;21995;-61
2023/01/09 14:47:14;;;;;;;12.90;3.20;;;;;;;11.34;63.88;101125.76;107819;1289;22011;-64
2023/01/09 14:50:04;;;;;;;8.20;2.60;;;;;;;11.37;63.42;101124.70;107763;1287;21996;-63